Baton Rouge, LA

12:50 PM CDT en Octubre 23, 2014 (GMT -0500)
415/Court St | Change Station
CLOSE
Current Station
Estación meteorológica personal
Location: Port Allen, LA
Altura: 30 ft
Estaciones meteorológicas cercanas

Alt 30 ft 30.45 °N, 91.24 °W | Updated 2 seconds ago

Despejado
Despejado
71.4 ° F
Sensación térmica 77 ° F
N
2.0
Viento Variable Viento desde Este
Gusts 11.0 mph

Hoy
Alta -- | Baja -- ° F
--% Posibilidad de precipitaciones
Ayer
Alta -- | Baja -- ° F
Precip. -- pul
7:12 AM 6:25 PM
Creciente menguante, 0% visible
Presión 30.12 pul
Visibilidad 10.0 Millas
Nubes Despejado
Índice de calor 77 ° F
Punto de rocío 50 ° F
Humedad 46%
Precipitaciones 0.00 pul
Espesor de la nieve No disponible.
UV 7 de una escala de 12
Polen 2.90 de una escala de 12
Ozono Buena
PM2.5 Buena
Flu Activity Sporadic
METAR KBTR 231653Z 03006KT 10SM CLR 22/08 A3012 RMK AO2 SLP199 T02170078

More Conditions Fewer Conditions

Presión 30.12 pul
Visibilidad 10.0 Millas
Nubes Despejado
Índice de calor 77 ° F
Punto de rocío 50 ° F
Humedad 46%
Precipitaciones 0.00 pul
Espesor de la nieve No disponible.
UV 7 de una escala de 12
Polen 2.90 de una escala de 12
Ozono Buena
PM2.5 Buena
Flu Activity Sporadic
METAR KBTR 231653Z 03006KT 10SM CLR 22/08 A3012 RMK AO2 SLP199 T02170078

More Conditions Fewer Conditions

10-Day Weather Forecast

Almanac

Astronomía

Oct. 23, 2014 Salida Puesta
Hora real 7:12 AM CDT 6:25 PM CDT
Crepúsculo civil 6:48 AM CDT 6:49 PM CDT
Crepúsculo náutico 6:19 AM CDT 7:17 PM CDT
Crepúsculo astronómico 5:51 AM CDT 7:45 PM CDT
Luna 6:53 AM CDT 6:26 PM CDT
Horas de luz 12h 01m
Horas de luz
11h 12m
Tomorrow will be 1m 42s shorter.
Creciente menguante, 0% of the Moon is Illuminated
Hoy
Creciente menguante
Oct 23
Nueva
Oct 30
Cuarto creciente
Nov 6
Luna llena
Nov 14
Cuarto menguante

Extremos de hoy

Máximos del estado Bajos del estado

Community

WunderPhotos

Upload Photos

1,764,322 ¡fotos cargadas!

WunderBlogs® & News

By Dr. Jeff Masters
Director of Meteorology, Weather Underground
By Kari Strenfel
Meteorologist, Weather Underground
By Christopher C. Burt
Weather Historian, Weather Underground
October 23, 2014
October 23, 2014
October 23, 2014

Nearby

Calidad del aire

  Calidad del aire Índice AQ Contaminante
Ayer Moderada
PM2.5
Ayer Buena
OZONE
Real Buena
PM2.5
Real Buena
OZONE
Jueves Moderada
PM2.5
Jueves Moderada
OZONE
Viernes Moderada
OZONE
Viernes Moderada
PM2.5

Grosos de nieve

Estación Profundido Altura
No tenemos constancia de nieve nueva.

Actividad de terremotos

Ciudad Distance Mag. Tiempo y dato
No hay informes recientes de la actividad sísmica.
Magnitud mínima muestra es 2,5.

Temperaturas de aguas costeras

Lugar Temperatura
Sin partes meteorológicos de las estaciones

Estaciones meteorológicas cercanas